createdAt,value
2024-01-11T00:01:53.615Z,101752.44
2024-01-11T00:04:57.086Z,101762.06
2024-01-11T00:08:00.181Z,101757.44
2024-01-11T00:11:03.836Z,101760.78
2024-01-11T00:14:06.720Z,101754.59
2024-01-11T00:17:09.974Z,101752.47
2024-01-11T00:20:13.168Z,101759.84
2024-01-11T00:23:17.064Z,101754.53
2024-01-11T00:26:20.206Z,101758.84
2024-01-11T00:29:23.321Z,101747.56
2024-01-11T00:32:26.272Z,101748.09
2024-01-11T00:35:30.796Z,101747.03
2024-01-11T00:38:34.205Z,101753.03
2024-01-11T00:41:37.726Z,101752.59
2024-01-11T00:44:40.616Z,101744.97
2024-01-11T00:47:44.222Z,101745.41
2024-01-11T00:50:48.449Z,101742.16
2024-01-11T00:53:51.712Z,101729.00
2024-01-11T00:56:54.801Z,101733.91
2024-01-11T00:59:58.100Z,101728.31
2024-01-11T01:03:00.873Z,101723.75
2024-01-11T01:06:04.788Z,101727.97
2024-01-11T01:09:07.892Z,101725.97
2024-01-11T01:12:11.707Z,101727.25
2024-01-11T01:15:18.135Z,101726.66
2024-01-11T01:18:21.442Z,101718.47
2024-01-11T01:21:24.534Z,101723.97
2024-01-11T01:24:27.883Z,101715.19
2024-01-11T01:27:30.845Z,101709.09
2024-01-11T01:30:34.265Z,101705.69
2024-01-11T01:33:37.462Z,101708.66
2024-01-11T01:36:42.717Z,101702.13
2024-01-11T01:39:45.886Z,101697.72
2024-01-11T01:42:50.406Z,101693.59
2024-01-11T01:45:54.057Z,101689.94
2024-01-11T01:48:59.569Z,101695.09
2024-01-11T01:52:04.573Z,101679.16
2024-01-11T01:55:10.344Z,101683.63
2024-01-11T01:58:14.568Z,101675.16
2024-01-11T02:01:19.016Z,101652.72
2024-01-11T02:04:24.271Z,101674.78
2024-01-11T02:07:27.637Z,101674.13
2024-01-11T02:10:34.234Z,101675.75
2024-01-11T02:13:37.497Z,101676.19
2024-01-11T02:16:40.440Z,101664.88
2024-01-11T02:19:43.553Z,101669.53
2024-01-11T02:22:51.890Z,101668.34
2024-01-11T02:25:55.218Z,101668.66
2024-01-11T02:28:59.637Z,101657.97
2024-01-11T02:32:04.289Z,101651.84
2024-01-11T02:35:07.829Z,101650.63
2024-01-11T02:38:11.215Z,101654.69
2024-01-11T02:41:17.337Z,101643.47
2024-01-11T02:44:20.803Z,101646.81
2024-01-11T02:47:23.741Z,101642.12
2024-01-11T02:50:26.997Z,101639.63
2024-01-11T02:53:35.637Z,101634.91
2024-01-11T02:56:39.484Z,101620.22
2024-01-11T02:59:44.741Z,101620.22
2024-01-11T03:02:48.008Z,101619.84
2024-01-11T03:05:50.970Z,101613.06
2024-01-11T03:08:54.375Z,101614.97
2024-01-11T03:11:57.236Z,101603.72
2024-01-11T03:15:01.102Z,101600.00
2024-01-11T03:18:04.525Z,101598.09
2024-01-11T03:21:08.141Z,101595.84
2024-01-11T03:24:11.141Z,101599.16
2024-01-11T03:27:14.441Z,101600.34
2024-01-11T03:30:18.035Z,101591.28
2024-01-11T03:33:21.876Z,101588.44
2024-01-11T03:36:28.812Z,101591.66
2024-01-11T03:39:32.087Z,101588.22
2024-01-11T03:42:35.439Z,101583.06
2024-01-11T03:45:38.683Z,101568.00
2024-01-11T03:48:41.813Z,101572.53
2024-01-11T03:51:47.878Z,101569.13
2024-01-11T03:54:52.102Z,101565.63
2024-01-11T03:57:55.435Z,101555.87
2024-01-11T04:00:58.688Z,101563.72
2024-01-11T04:04:02.598Z,101550.41
2024-01-11T04:07:05.922Z,101555.28
2024-01-11T04:10:10.826Z,101543.16
2024-01-11T04:13:14.972Z,101549.03
2024-01-11T04:16:18.375Z,101542.59
2024-01-11T04:19:23.707Z,101561.16
2024-01-11T04:22:31.214Z,101556.50
2024-01-11T04:25:34.480Z,101560.22
2024-01-11T04:28:39.114Z,101555.56
2024-01-11T04:31:43.749Z,101553.31
2024-01-11T04:34:47.160Z,101551.78
2024-01-11T04:37:50.075Z,101556.91
2024-01-11T04:40:53.145Z,101560.28
2024-01-11T04:43:56.400Z,101566.72
2024-01-11T04:47:02.225Z,101562.75
2024-01-11T04:50:06.277Z,101563.56
2024-01-11T04:53:09.530Z,101558.72
2024-01-11T04:56:17.809Z,101562.59
2024-01-11T04:59:21.315Z,101557.94
2024-01-11T05:02:24.731Z,101569.69
2024-01-11T05:05:28.235Z,101565.97
2024-01-11T05:08:31.840Z,101565.97
2024-01-11T05:11:35.233Z,101565.87
2024-01-11T05:14:39.885Z,101553.97
2024-01-11T05:17:44.889Z,101554.31
2024-01-11T05:20:50.986Z,101552.94
2024-01-11T05:23:54.281Z,101559.59
2024-01-11T05:26:57.268Z,101560.06
2024-01-11T05:30:00.878Z,101562.37
2024-01-11T05:33:05.305Z,101558.38
2024-01-11T05:36:09.410Z,101577.47
2024-01-11T05:39:13.663Z,101561.94
2024-01-11T05:42:21.293Z,101567.78
2024-01-11T05:45:29.197Z,101569.78
2024-01-11T05:48:43.520Z,101577.34
2024-01-11T05:51:46.949Z,101574.81
2024-01-11T05:54:50.314Z,101570.31
2024-01-11T05:57:53.458Z,101561.94
2024-01-11T06:00:57.131Z,101560.13
2024-01-11T06:04:00.580Z,101564.47
2024-01-11T06:07:03.867Z,101555.37
2024-01-11T06:10:07.853Z,101561.16
2024-01-11T06:13:11.188Z,101560.84
2024-01-11T06:16:15.177Z,101554.97
2024-01-11T06:19:18.513Z,101546.47
2024-01-11T06:22:22.479Z,101538.41
2024-01-11T06:25:25.793Z,101540.31
2024-01-11T06:28:29.170Z,101540.91
2024-01-11T06:31:32.292Z,101554.75
2024-01-11T06:34:37.390Z,101542.72
2024-01-11T06:37:40.395Z,101541.94
2024-01-11T06:40:44.976Z,101532.75
2024-01-11T06:43:48.084Z,101535.72
2024-01-11T06:46:52.160Z,101541.31
2024-01-11T06:49:55.319Z,101545.78
2024-01-11T06:52:58.557Z,101542.16
2024-01-11T06:56:02.181Z,101539.94
2024-01-11T06:59:05.681Z,101531.38
2024-01-11T07:02:09.202Z,101531.72
2024-01-11T07:05:13.953Z,101539.59
2024-01-11T07:08:17.051Z,101539.59
2024-01-11T07:11:20.680Z,101540.78
2024-01-11T07:14:24.232Z,101552.69
2024-01-11T07:17:27.802Z,101540.00
2024-01-11T07:20:31.256Z,101539.03
2024-01-11T07:23:35.840Z,101524.44
2024-01-11T07:26:38.650Z,101531.13
2024-01-11T07:29:42.080Z,101545.94
2024-01-11T07:32:45.159Z,101548.81
2024-01-11T07:35:49.537Z,101556.75
2024-01-11T07:38:52.931Z,101551.31
2024-01-11T07:41:56.993Z,101545.91
2024-01-11T07:45:00.385Z,101532.22
2024-01-11T07:48:05.292Z,101547.97
2024-01-11T07:51:09.044Z,101542.84
2024-01-11T07:54:12.513Z,101538.78
2024-01-11T07:57:15.504Z,101540.28
2024-01-11T08:00:18.969Z,101539.53
2024-01-11T08:03:22.258Z,101542.94
2024-01-11T08:06:25.761Z,101526.19
2024-01-11T08:09:29.957Z,101517.28
2024-01-11T08:12:33.064Z,101513.28
2024-01-11T08:15:36.521Z,101510.50
2024-01-11T08:18:39.544Z,101519.81
2024-01-11T08:21:43.562Z,101495.56
2024-01-11T08:24:46.777Z,101508.06
2024-01-11T08:27:50.214Z,101507.06
2024-01-11T08:30:53.586Z,101503.81
2024-01-11T08:33:58.675Z,101502.03
2024-01-11T08:37:01.885Z,101509.31
2024-01-11T08:40:07.266Z,101501.59
2024-01-11T08:43:12.661Z,101508.19
2024-01-11T08:46:27.826Z,101507.91
2024-01-11T08:49:31.925Z,101495.00
2024-01-11T08:52:38.235Z,101491.47
2024-01-11T08:55:43.332Z,101494.94
2024-01-11T08:58:48.180Z,101487.44
2024-01-11T09:01:57.750Z,101496.41
2024-01-11T09:05:15.932Z,101491.50
2024-01-11T09:08:19.134Z,101495.00
2024-01-11T09:11:23.133Z,101488.28
2024-01-11T09:14:27.065Z,101484.34
2024-01-11T09:17:30.680Z,101475.16
2024-01-11T09:20:35.279Z,101475.16
2024-01-11T09:23:39.428Z,101474.41
2024-01-11T09:26:43.629Z,101464.84
2024-01-11T09:29:50.078Z,101449.84
2024-01-11T09:32:54.722Z,101438.53
2024-01-11T09:35:58.340Z,101422.66
2024-01-11T09:39:01.733Z,101426.97
2024-01-11T09:42:14.114Z,101418.84
2024-01-11T09:45:18.721Z,101395.75
2024-01-11T09:48:24.611Z,101390.47
2024-01-11T09:51:30.630Z,101380.28
2024-01-11T09:54:33.926Z,101387.34
2024-01-11T09:57:42.261Z,101378.00
2024-01-11T10:00:48.356Z,101358.72
2024-01-11T10:03:54.504Z,101362.06
2024-01-11T10:06:58.846Z,101354.78
2024-01-11T10:10:04.755Z,101350.59
2024-01-11T10:13:08.459Z,101329.44
2024-01-11T10:16:16.719Z,101327.69
2024-01-11T10:19:23.063Z,101325.44
2024-01-11T10:22:27.508Z,101335.00
2024-01-11T10:25:30.892Z,101340.12
2024-01-11T10:28:39.179Z,101334.97
2024-01-11T10:31:42.475Z,101331.84
2024-01-11T10:34:46.202Z,101329.97
2024-01-11T10:37:52.466Z,101323.59
2024-01-11T10:40:57.790Z,101334.69
2024-01-11T10:44:03.155Z,101325.66
2024-01-11T10:47:10.975Z,101327.12
2024-01-11T10:50:15.089Z,101327.19
2024-01-11T10:53:41.746Z,101312.06
2024-01-11T10:56:45.251Z,101304.97
2024-01-11T10:59:50.189Z,101293.75
2024-01-11T11:02:56.107Z,101301.25
2024-01-11T11:06:01.022Z,101301.25
2024-01-11T11:09:07.723Z,101282.28
2024-01-11T11:12:12.544Z,101281.41
2024-01-11T11:15:16.577Z,101286.09
2024-01-11T11:18:26.433Z,101286.84
2024-01-11T11:21:30.243Z,101268.94
2024-01-11T11:24:36.670Z,101272.94
2024-01-11T11:27:39.577Z,101274.47
2024-01-11T11:30:44.494Z,101258.94
2024-01-11T11:33:51.630Z,101257.16
2024-01-11T11:36:57.369Z,101252.41
2024-01-11T11:40:02.057Z,101259.16
2024-01-11T11:43:06.905Z,101270.06
2024-01-11T11:46:10.321Z,101246.25
2024-01-11T11:49:15.016Z,101247.16
2024-01-11T11:52:19.189Z,101237.47
2024-01-11T11:55:25.739Z,101237.28
2024-01-11T11:58:30.411Z,101235.41
2024-01-11T12:01:35.346Z,101231.91
2024-01-11T12:04:40.862Z,101228.19
2024-01-11T12:07:44.179Z,101210.63
2024-01-11T12:14:05.672Z,101209.87
2024-01-11T12:17:10.632Z,101193.16
2024-01-11T12:20:14.557Z,101193.31
2024-01-11T12:23:20.216Z,101184.62
2024-01-11T12:26:24.276Z,101191.72
2024-01-11T12:29:36.810Z,101191.34
2024-01-11T12:32:48.324Z,101192.06
2024-01-11T12:35:51.965Z,101181.66
2024-01-11T12:38:55.353Z,101182.19
2024-01-11T12:41:59.328Z,101178.84
2024-01-11T12:45:03.161Z,101181.47
2024-01-11T12:48:12.490Z,101168.91
2024-01-11T12:51:21.689Z,101167.44
2024-01-11T12:54:26.168Z,101156.94
2024-01-11T12:57:31.242Z,101140.09
2024-01-11T13:00:34.612Z,101148.78
2024-01-11T13:03:40.056Z,101149.56
2024-01-11T13:06:43.863Z,101150.53
2024-01-11T13:09:47.083Z,101142.56
2024-01-11T13:12:56.754Z,101142.41
2024-01-11T13:16:13.035Z,101132.97
2024-01-11T13:19:24.229Z,101128.19
2024-01-11T13:22:32.446Z,101128.56
2024-01-11T13:25:37.825Z,101116.00
2024-01-11T13:28:42.047Z,101115.09
2024-01-11T13:31:45.858Z,101110.63
2024-01-11T13:34:49.125Z,101121.87
2024-01-11T13:37:52.870Z,101119.94
2024-01-11T13:40:56.138Z,101112.56
2024-01-11T13:44:01.495Z,101109.88
2024-01-11T13:47:04.818Z,101101.75
2024-01-11T13:50:09.239Z,101102.06
2024-01-11T13:53:12.827Z,101105.59
2024-01-11T13:56:17.593Z,101102.97
2024-01-11T13:59:21.342Z,101098.78
2024-01-11T14:02:25.387Z,101081.31
2024-01-11T14:05:29.932Z,101069.34
2024-01-11T14:08:33.644Z,101076.41
2024-01-11T14:11:37.742Z,101064.50
2024-01-11T14:14:40.755Z,101071.13
2024-01-11T14:17:44.262Z,101075.34
2024-01-11T14:20:47.979Z,101067.44
2024-01-11T14:23:52.674Z,101058.53
2024-01-11T14:26:55.885Z,101060.41
2024-01-11T14:29:59.195Z,101051.75
2024-01-11T14:33:03.609Z,101059.41
2024-01-11T14:36:07.935Z,101047.50
2024-01-11T14:39:11.410Z,101055.13
2024-01-11T14:42:14.696Z,101062.88
2024-01-11T14:45:18.608Z,101060.97
2024-01-11T14:48:24.999Z,101056.94
2024-01-11T14:51:32.864Z,101058.06
2024-01-11T14:54:38.324Z,101048.62
2024-01-11T14:57:41.873Z,101042.38
2024-01-11T15:00:45.891Z,101045.66
2024-01-11T15:03:49.483Z,101042.97
2024-01-11T15:06:54.735Z,101033.75
2024-01-11T15:09:58.106Z,101029.16
2024-01-11T15:13:01.516Z,101043.87
2024-01-11T15:16:04.906Z,101037.59
2024-01-11T15:19:08.166Z,101040.91
2024-01-11T15:22:13.823Z,101044.97
2024-01-11T15:25:18.767Z,101037.66
2024-01-11T15:28:23.907Z,101061.31
2024-01-11T15:31:28.466Z,101063.25
2024-01-11T15:34:31.601Z,101065.13
2024-01-11T15:37:37.692Z,101063.78
2024-01-11T15:40:40.651Z,101068.13
2024-01-11T15:43:48.803Z,101065.69
2024-01-11T15:46:51.868Z,101077.94
2024-01-11T15:49:55.410Z,101052.38
2024-01-11T15:52:58.478Z,101055.34
2024-01-11T15:56:02.272Z,101059.69
2024-01-11T15:59:05.308Z,101056.19
2024-01-11T16:02:10.043Z,101062.97
2024-01-11T16:05:13.693Z,101068.69
2024-01-11T16:08:18.475Z,101075.75
2024-01-11T16:11:23.586Z,101068.94
2024-01-11T16:14:26.600Z,101071.41
2024-01-11T16:17:32.228Z,101076.56
2024-01-11T16:20:39.458Z,101075.75
2024-01-11T16:23:43.597Z,101074.66
2024-01-11T16:26:46.751Z,101068.66
2024-01-11T16:29:50.430Z,101071.94
2024-01-11T16:32:53.410Z,101070.00
2024-01-11T16:35:59.278Z,101064.53
2024-01-11T16:39:04.562Z,101056.66
2024-01-11T16:42:13.385Z,101052.31
2024-01-11T16:45:16.643Z,101041.44
2024-01-11T16:48:20.202Z,101024.59
2024-01-11T16:51:23.854Z,101030.03
2024-01-11T16:54:27.233Z,101026.25
2024-01-11T16:57:30.368Z,101030.03
2024-01-11T17:00:33.738Z,101015.34
2024-01-11T17:03:38.150Z,101013.97
2024-01-11T17:06:41.803Z,101007.47
2024-01-11T17:09:44.780Z,101008.00
2024-01-11T17:12:49.299Z,101002.84
2024-01-11T17:15:52.412Z,100997.41
2024-01-11T17:18:55.991Z,100995.78
2024-01-11T17:21:58.980Z,100990.88
2024-01-11T17:25:03.526Z,100991.16
2024-01-11T17:28:06.609Z,100982.44
2024-01-11T17:31:09.846Z,100983.81
2024-01-11T17:34:12.985Z,100991.69
2024-01-11T17:37:22.043Z,100998.72
2024-01-11T17:40:25.091Z,100988.12
2024-01-11T17:43:29.652Z,100979.44
2024-01-11T17:46:33.732Z,100990.59
2024-01-11T17:49:45.867Z,100984.91
2024-01-11T17:52:51.287Z,100988.72
2024-01-11T17:55:55.533Z,100980.28
2024-01-11T17:58:58.299Z,100984.91
2024-01-11T18:02:02.259Z,100975.13
2024-01-11T18:05:06.202Z,100970.19
2024-01-11T18:08:09.437Z,100973.72
2024-01-11T18:11:13.890Z,100981.28
2024-01-11T18:14:18.000Z,100982.63
2024-01-11T18:17:21.599Z,100971.16
2024-01-11T18:20:24.510Z,100971.03
2024-01-11T18:23:28.835Z,100973.78
2024-01-11T18:26:31.794Z,100966.97
2024-01-11T18:29:35.985Z,100980.53
2024-01-11T18:32:39.005Z,100975.31
2024-01-11T18:35:44.798Z,100966.97
2024-01-11T18:38:48.351Z,100968.16
2024-01-11T18:41:54.806Z,100976.84
2024-01-11T18:44:59.397Z,100970.81
2024-01-11T18:48:07.205Z,100976.00
2024-01-11T18:51:10.338Z,100962.44
2024-01-11T18:54:13.946Z,100967.03
2024-01-11T18:57:17.536Z,100959.97
2024-01-11T19:00:21.679Z,100959.34
2024-01-11T19:03:25.653Z,100962.37
2024-01-11T19:06:31.118Z,100962.91
2024-01-11T19:09:34.353Z,100965.56
2024-01-11T19:12:39.565Z,100969.84
2024-01-11T19:15:42.651Z,100961.25
2024-01-11T19:18:46.984Z,100958.22
2024-01-11T19:21:51.195Z,100957.19
2024-01-11T19:24:54.496Z,100958.75
2024-01-11T19:28:01.057Z,100964.47
2024-01-11T19:31:06.899Z,100966.72
2024-01-11T19:34:11.676Z,100974.78
2024-01-11T19:37:19.464Z,100968.34
2024-01-11T19:40:24.547Z,100971.69
2024-01-11T19:43:28.378Z,100977.62
2024-01-11T19:46:35.113Z,100971.00
2024-01-11T19:49:39.181Z,100966.28
2024-01-11T19:52:43.078Z,100969.59
2024-01-11T19:55:49.032Z,100960.94
2024-01-11T19:58:53.848Z,100971.63
2024-01-11T20:01:59.399Z,100980.56
2024-01-11T20:05:06.393Z,100978.94
2024-01-11T20:08:09.790Z,100975.03
2024-01-11T20:11:13.926Z,100964.94
2024-01-11T20:14:19.718Z,100969.53
2024-01-11T20:17:23.775Z,100974.69
2024-01-11T20:20:26.612Z,100973.91
2024-01-11T20:23:30.685Z,100972.31
2024-01-11T20:26:33.971Z,100968.19
2024-01-11T20:29:37.148Z,100968.69
2024-01-11T20:32:40.565Z,100980.44
2024-01-11T20:35:45.043Z,100977.44
2024-01-11T20:38:48.216Z,100982.00
2024-01-11T20:41:51.874Z,100974.34
2024-01-11T20:44:55.033Z,100982.25
2024-01-11T20:47:58.702Z,100974.91
2024-01-11T20:51:02.978Z,100959.97
2024-01-11T20:54:06.331Z,100983.66
2024-01-11T20:57:11.246Z,100984.47
2024-01-11T21:00:17.840Z,100982.50
2024-01-11T21:03:21.518Z,100976.63
2024-01-11T21:06:24.829Z,100985.97
2024-01-11T21:09:27.841Z,100980.47
2024-01-11T21:12:31.043Z,100981.56
2024-01-11T21:15:34.230Z,100989.97
2024-01-11T21:18:37.829Z,100984.38
2024-01-11T21:21:41.666Z,100986.53
2024-01-11T21:24:46.184Z,100985.44
2024-01-11T21:27:50.058Z,100977.56
2024-01-11T21:30:53.410Z,100981.09
2024-01-11T21:33:57.197Z,100979.69
2024-01-11T21:37:02.341Z,100984.31
2024-01-11T21:40:05.779Z,100981.59
2024-01-11T21:43:10.080Z,100963.13
2024-01-11T21:46:13.963Z,100959.06
2024-01-11T21:49:20.370Z,100955.31
2024-01-11T21:52:24.643Z,100947.69
2024-01-11T21:55:27.829Z,100953.94
2024-01-11T21:58:31.295Z,100944.69
2024-01-11T22:01:42.862Z,100943.09
2024-01-11T22:04:46.281Z,100953.97
2024-01-11T22:07:50.461Z,100943.91
2024-01-11T22:10:55.766Z,100964.56
2024-01-11T22:13:59.450Z,100958.87
2024-01-11T22:17:03.101Z,100967.03
2024-01-11T22:20:07.081Z,100963.47
2024-01-11T22:23:10.972Z,100949.63
2024-01-11T22:26:13.919Z,100943.66
2024-01-11T22:29:17.083Z,100928.16
2024-01-11T22:32:20.004Z,100942.31
2024-01-11T22:35:23.458Z,100939.84
2024-01-11T22:38:29.453Z,100953.97
2024-01-11T22:41:39.844Z,100958.59
2024-01-11T22:44:45.378Z,100968.13
2024-01-11T22:47:48.765Z,100973.56
2024-01-11T22:50:51.847Z,100986.59
2024-01-11T22:53:55.240Z,100990.94
2024-01-11T22:56:58.393Z,100991.22
2024-01-11T23:00:04.328Z,100995.56
2024-01-11T23:03:07.326Z,100996.09
2024-01-11T23:06:12.113Z,101012.12
2024-01-11T23:09:15.029Z,101009.06
2024-01-11T23:12:20.390Z,100999.03
2024-01-11T23:15:23.917Z,101002.25
2024-01-11T23:18:27.977Z,101009.28
2024-01-11T23:21:30.912Z,101006.84
2024-01-11T23:24:34.635Z,101003.09
2024-01-11T23:27:37.705Z,101008.78
2024-01-11T23:30:42.136Z,101026.91
2024-01-11T23:33:45.387Z,101026.03
2024-01-11T23:36:48.918Z,101033.66
2024-01-11T23:39:52.012Z,101028.78
2024-01-11T23:42:55.340Z,101029.06
2024-01-11T23:45:58.486Z,101035.34
2024-01-11T23:49:03.131Z,101026.66
2024-01-11T23:52:07.031Z,101011.75
2024-01-11T23:55:10.362Z,101007.13
2024-01-11T23:58:13.524Z,101012.50
